Mineral, California
Current Conditions -  °F | °C
As of 7:54 AM on Thursday 27 Nov 2014 (Local Time) from KRBL Reporting Station
Clear Clear  
Wind Chill: 45°   Ceiling: Unl
Heat Index: 48°   Visibility: 10mi
Dew Point: 46°   Wind: 6mph
Humidity: 93%   Direction: 340°NNW
Pressure: 30.21"   Gusts: NA
Location:  40.35°N, 121.6°W
Report Text: KRBL 271554Z AUTO 34005KT 10SM CLR 09/08 A3021 RMK AO2 SLP228 T00890078
Loading
Personal Weather Stations






























Interactive Weather Map New forecast layout! Learn more

10-Day Weather Forecast

Advertisements
Track Severe Weather on mobile